Time;durP1;ratioP1;P1;durP2;ratioP2;P2;SDS_P1;SDS_P2;PMS_P1;PMS_P2;Temp;Humidity;BMP_temperature;BMP_pressure;BME280_temperature;BME280_humidity;BME280_pressure;Samples;Min_cycle;Max_cycle;Signal;HPM_P1;HPM_P2
2024/03/29 00:00:39;;;;;;;2.28;0.70;;;;;;;;;;4973685;28;20031;-63
2024/03/29 00:03:04;;;;;;;2.75;0.60;;;;;;;;;;4976652;28;20020;-63
2024/03/29 00:05:29;;;;;;;3.10;0.60;;;;;;;;;;5034448;28;20105;-63
2024/03/29 00:07:54;;;;;;;2.10;0.50;;;;;;;;;;4981530;28;20052;-63
2024/03/29 00:10:19;;;;;;;2.00;0.50;;;;;;;;;;4986905;28;20040;-62
2024/03/29 00:12:45;;;;;;;3.30;0.80;;;;;;;;;;4990988;28;20077;-63
2024/03/29 00:15:10;;;;;;;2.90;0.70;;;;;;;;;;4985201;28;20041;-63
2024/03/29 00:17:35;;;;;;;3.88;0.80;;;;;;;;;;4962748;28;20091;-63
2024/03/29 00:20:00;;;;;;;4.40;0.80;;;;;;;;;;4966968;28;20038;-62
2024/03/29 00:22:25;;;;;;;4.55;0.60;;;;;;;;;;4981456;28;20023;-63
2024/03/29 00:24:50;;;;;;;3.28;0.63;;;;;;;;;;4977458;28;20045;-63
2024/03/29 00:27:15;;;;;;;5.10;1.20;;;;;;;;;;4980342;28;20030;-63
2024/03/29 00:29:42;;;;;;;4.72;1.30;;;;;;;;;;4991560;28;20022;-63
2024/03/29 00:32:07;;;;;;;4.07;1.13;;;;;;;;;;4979555;28;20039;-63
2024/03/29 00:34:33;;;;;;;4.18;1.20;;;;;;;;;;4973127;28;20652;-62
2024/03/29 00:36:58;;;;;;;3.13;0.90;;;;;;;;;;4952613;28;20031;-63
2024/03/29 00:39:23;;;;;;;3.95;1.10;;;;;;;;;;4952635;28;20035;-62
2024/03/29 00:41:48;;;;;;;5.05;1.20;;;;;;;;;;4952295;28;20051;-63
2024/03/29 00:44:13;;;;;;;4.43;1.20;;;;;;;;;;4977356;28;20031;-65
2024/03/29 00:46:39;;;;;;;4.30;1.03;;;;;;;;;;4975548;28;20015;-62
2024/03/29 00:49:04;;;;;;;3.83;0.90;;;;;;;;;;4963826;28;20483;-64
2024/03/29 00:51:31;;;;;;;4.18;1.10;;;;;;;;;;4961870;28;20114;-62
2024/03/29 00:53:56;;;;;;;2.88;1.20;;;;;;;;;;4969402;28;20035;-65
2024/03/29 00:56:21;;;;;;;3.42;1.10;;;;;;;;;;4968899;28;20019;-64
2024/03/29 00:58:47;;;;;;;3.53;1.03;;;;;;;;;;4968839;28;20081;-62
2024/03/29 01:01:12;;;;;;;5.35;1.30;;;;;;;;;;4976977;28;20026;-64
2024/03/29 01:03:37;;;;;;;5.22;1.52;;;;;;;;;;4985549;28;20031;-63
2024/03/29 01:06:02;;;;;;;4.38;1.30;;;;;;;;;;5006391;28;20026;-63
2024/03/29 01:08:29;;;;;;;3.50;1.20;;;;;;;;;;4998465;28;20431;-64
2024/03/29 01:10:54;;;;;;;3.45;1.20;;;;;;;;;;4966814;28;20450;-63
2024/03/29 01:13:19;;;;;;;3.05;0.95;;;;;;;;;;4966965;28;20035;-63
2024/03/29 01:15:44;;;;;;;5.70;1.20;;;;;;;;;;4954141;28;20549;-63
2024/03/29 01:18:10;;;;;;;5.05;1.30;;;;;;;;;;4969911;28;20056;-63
2024/03/29 01:20:35;;;;;;;3.15;1.17;;;;;;;;;;4976962;28;20031;-62
2024/03/29 01:23:00;;;;;;;3.78;1.40;;;;;;;;;;4962496;28;20054;-63
2024/03/29 01:25:27;;;;;;;3.08;1.08;;;;;;;;;;4954978;28;20085;-63
2024/03/29 01:27:52;;;;;;;4.57;1.30;;;;;;;;;;4951327;28;20034;-65
2024/03/29 01:30:18;;;;;;;4.30;1.13;;;;;;;;;;4953590;28;20024;-64
2024/03/29 01:32:43;;;;;;;4.72;1.13;;;;;;;;;;4953492;29;20098;-65
2024/03/29 01:35:08;;;;;;;4.47;1.08;;;;;;;;;;4972410;28;20026;-62
2024/03/29 01:37:34;;;;;;;5.27;1.93;;;;;;;;;;4975119;28;20031;-63
2024/03/29 01:39:59;;;;;;;3.55;1.20;;;;;;;;;;4952842;28;20049;-63
2024/03/29 01:42:24;;;;;;;4.60;1.30;;;;;;;;;;4955712;28;20027;-63
2024/03/29 01:44:49;;;;;;;4.47;1.48;;;;;;;;;;4970740;28;20108;-62
2024/03/29 01:47:16;;;;;;;4.10;1.10;;;;;;;;;;4971435;28;20059;-63
2024/03/29 01:49:41;;;;;;;5.88;1.40;;;;;;;;;;4971598;28;20035;-63
2024/03/29 01:52:06;;;;;;;4.60;1.00;;;;;;;;;;4970687;28;20443;-63
2024/03/29 01:54:31;;;;;;;2.87;0.83;;;;;;;;;;4969923;28;20501;-62
2024/03/29 01:56:57;;;;;;;4.77;0.87;;;;;;;;;;4991099;28;20159;-64
2024/03/29 01:59:22;;;;;;;4.03;1.10;;;;;;;;;;4966074;28;20542;-62
2024/03/29 02:01:48;;;;;;;4.13;1.17;;;;;;;;;;4972486;28;20035;-63
2024/03/29 02:04:14;;;;;;;4.07;1.00;;;;;;;;;;4976231;28;20102;-63
2024/03/29 02:06:39;;;;;;;3.58;1.00;;;;;;;;;;4970877;28;20346;-63
2024/03/29 02:09:05;;;;;;;6.32;1.20;;;;;;;;;;4960979;28;20026;-63
2024/03/29 02:11:30;;;;;;;3.73;0.90;;;;;;;;;;4976354;28;20451;-63
2024/03/29 02:13:55;;;;;;;2.17;0.70;;;;;;;;;;4974187;28;20113;-63
2024/03/29 02:16:21;;;;;;;3.72;0.93;;;;;;;;;;4951927;28;20027;-63
2024/03/29 02:18:46;;;;;;;3.77;0.90;;;;;;;;;;4984154;28;20100;-63
2024/03/29 02:21:11;;;;;;;3.10;0.90;;;;;;;;;;4979112;28;20034;-62
2024/03/29 02:23:37;;;;;;;4.20;0.90;;;;;;;;;;4971054;28;20532;-62
2024/03/29 02:26:03;;;;;;;4.97;1.23;;;;;;;;;;4974414;28;20049;-64
2024/03/29 02:28:28;;;;;;;6.07;1.27;;;;;;;;;;4973633;28;20505;-62
2024/03/29 02:30:53;;;;;;;4.90;1.00;;;;;;;;;;4962517;28;20049;-63
2024/03/29 02:33:20;;;;;;;4.90;0.97;;;;;;;;;;4986410;28;20049;-63
2024/03/29 02:35:45;;;;;;;4.65;0.95;;;;;;;;;;4971779;28;20034;-63
2024/03/29 02:38:10;;;;;;;3.67;0.88;;;;;;;;;;4969544;28;20078;-63
2024/03/29 02:40:36;;;;;;;3.72;1.10;;;;;;;;;;4971092;28;20060;-63
2024/03/29 02:43:01;;;;;;;7.15;1.20;;;;;;;;;;4980463;28;20386;-63
2024/03/29 02:45:26;;;;;;;5.25;0.90;;;;;;;;;;4984434;28;20038;-62
2024/03/29 02:47:51;;;;;;;4.17;1.17;;;;;;;;;;4976333;28;20027;-62
2024/03/29 02:50:16;;;;;;;3.45;0.90;;;;;;;;;;4970213;28;20477;-62
2024/03/29 02:52:42;;;;;;;3.57;1.00;;;;;;;;;;4969815;28;20031;-63
2024/03/29 02:55:07;;;;;;;6.40;1.20;;;;;;;;;;4969762;28;20041;-63
2024/03/29 02:57:33;;;;;;;5.78;1.08;;;;;;;;;;4968386;28;20054;-63
2024/03/29 02:59:59;;;;;;;5.10;1.03;;;;;;;;;;4992061;28;20506;-62
2024/03/29 03:02:24;;;;;;;5.03;1.20;;;;;;;;;;4968589;28;20018;-62
2024/03/29 03:04:49;;;;;;;4.67;1.23;;;;;;;;;;4970488;28;20464;-62
2024/03/29 03:12:43;;;;;;;5.88;1.33;;;;;;;;;;4971499;28;20041;-63
2024/03/29 03:15:08;;;;;;;5.43;1.30;;;;;;;;;;4980111;28;20035;-62
2024/03/29 03:17:33;;;;;;;6.33;1.60;;;;;;;;;;4982683;28;20093;-63
2024/03/29 03:19:58;;;;;;;5.22;1.50;;;;;;;;;;4978479;28;20169;-62
2024/03/29 03:22:24;;;;;;;3.97;1.10;;;;;;;;;;4951054;28;20869;-62
2024/03/29 03:24:49;;;;;;;4.43;1.20;;;;;;;;;;4962119;28;20035;-62
2024/03/29 03:27:14;;;;;;;5.07;1.30;;;;;;;;;;4970021;28;20031;-63
2024/03/29 03:29:39;;;;;;;4.85;1.33;;;;;;;;;;4971597;28;20429;-62
2024/03/29 03:32:05;;;;;;;3.97;1.30;;;;;;;;;;4971455;28;20031;-64
2024/03/29 03:34:30;;;;;;;4.95;1.40;;;;;;;;;;4980332;28;20399;-63
2024/03/29 03:36:55;;;;;;;4.93;1.20;;;;;;;;;;4987385;28;20440;-64
2024/03/29 03:39:21;;;;;;;5.13;1.60;;;;;;;;;;4961828;28;20027;-63
2024/03/29 03:41:46;;;;;;;4.45;1.38;;;;;;;;;;4952094;28;20051;-63
2024/03/29 03:44:12;;;;;;;8.45;1.20;;;;;;;;;;4961237;28;20026;-63
2024/03/29 03:46:37;;;;;;;4.55;1.38;;;;;;;;;;4974930;28;20019;-63
2024/03/29 03:49:02;;;;;;;4.20;1.10;;;;;;;;;;4969844;28;20123;-62
2024/03/29 03:51:27;;;;;;;3.85;1.17;;;;;;;;;;4976844;28;20031;-63
2024/03/29 03:53:52;;;;;;;5.22;1.65;;;;;;;;;;4982588;28;20426;-63
2024/03/29 03:56:17;;;;;;;5.97;1.40;;;;;;;;;;4971138;28;20104;-63
2024/03/29 03:58:46;;;;;;;4.15;1.00;;;;;;;;;;4982251;28;20038;-63
2024/03/29 04:01:11;;;;;;;4.90;1.25;;;;;;;;;;4955443;28;20394;-63
2024/03/29 04:03:36;;;;;;;3.95;1.17;;;;;;;;;;4966157;28;20035;-62
2024/03/29 04:06:04;;;;;;;4.50;1.10;;;;;;;;;;4969975;28;20054;-62
2024/03/29 04:08:29;;;;;;;4.70;0.98;;;;;;;;;;4976507;28;20742;-62
2024/03/29 04:10:54;;;;;;;4.60;1.20;;;;;;;;;;4969699;28;20027;-63
2024/03/29 04:13:22;;;;;;;4.20;1.00;;;;;;;;;;4967958;29;20035;-63
2024/03/29 04:15:48;;;;;;;4.20;1.00;;;;;;;;;;4971728;28;20117;-62
2024/03/29 04:18:13;;;;;;;4.43;1.15;;;;;;;;;;4969975;28;20042;-63
2024/03/29 04:20:38;;;;;;;3.00;1.10;;;;;;;;;;4969267;28;20395;-61
2024/03/29 04:23:04;;;;;;;4.47;1.13;;;;;;;;;;4951397;28;20035;-63
2024/03/29 04:25:29;;;;;;;3.53;1.10;;;;;;;;;;4974856;28;20022;-63
2024/03/29 04:27:54;;;;;;;5.68;1.45;;;;;;;;;;4978747;28;20040;-63
2024/03/29 04:30:19;;;;;;;4.82;1.20;;;;;;;;;;4969632;28;20371;-61
2024/03/29 04:32:44;;;;;;;5.20;1.08;;;;;;;;;;4969328;28;20023;-62
2024/03/29 04:35:09;;;;;;;5.28;1.00;;;;;;;;;;4968727;28;20031;-62
2024/03/29 04:37:35;;;;;;;5.00;1.15;;;;;;;;;;4968463;28;20379;-63
2024/03/29 04:40:00;;;;;;;4.18;1.13;;;;;;;;;;4968977;28;20038;-63
2024/03/29 04:42:25;;;;;;;4.15;1.10;;;;;;;;;;4971112;28;20022;-62
2024/03/29 04:44:51;;;;;;;4.83;1.00;;;;;;;;;;4975902;28;20426;-62
2024/03/29 04:47:16;;;;;;;4.95;1.10;;;;;;;;;;4976232;28;20018;-62
2024/03/29 04:49:42;;;;;;;4.88;1.20;;;;;;;;;;4969068;28;20513;-62
2024/03/29 04:52:07;;;;;;;4.65;1.20;;;;;;;;;;4969465;28;20034;-63
2024/03/29 04:54:33;;;;;;;5.72;1.20;;;;;;;;;;4968295;28;20437;-62
2024/03/29 04:56:59;;;;;;;3.83;1.15;;;;;;;;;;5015413;28;20094;-63
2024/03/29 04:59:25;;;;;;;3.63;1.00;;;;;;;;;;5004558;28;20130;-62
2024/03/29 05:01:50;;;;;;;3.97;1.15;;;;;;;;;;4968352;28;20168;-62
2024/03/29 05:04:25;;;;;;;3.85;1.10;;;;;;;;;;4978246;28;20498;-62
2024/03/29 05:06:50;;;;;;;4.00;1.00;;;;;;;;;;4974982;28;20403;-63
2024/03/29 05:09:15;;;;;;;3.65;1.02;;;;;;;;;;4984922;28;20079;-63
2024/03/29 05:11:41;;;;;;;3.93;0.90;;;;;;;;;;4993559;28;20486;-62
2024/03/29 05:14:07;;;;;;;4.07;1.05;;;;;;;;;;4977270;28;20494;-63
2024/03/29 05:16:32;;;;;;;3.20;1.00;;;;;;;;;;4972845;28;20030;-62
2024/03/29 05:18:57;;;;;;;7.03;1.20;;;;;;;;;;4993935;28;20052;-62
2024/03/29 05:21:22;;;;;;;4.80;1.00;;;;;;;;;;4976669;28;20031;-62
2024/03/29 05:23:47;;;;;;;3.72;1.17;;;;;;;;;;4972727;28;20052;-63
2024/03/29 05:26:12;;;;;;;7.13;1.30;;;;;;;;;;4970784;28;20390;-64
2024/03/29 05:28:38;;;;;;;4.22;1.38;;;;;;;;;;4999888;28;20007;-63
2024/03/29 05:31:14;;;;;;;7.35;1.20;;;;;;;;;;4975454;28;20085;-62
2024/03/29 05:33:45;;;;;;;3.63;1.10;;;;;;;;;;4961061;28;20490;-62
2024/03/29 05:36:13;;;;;;;4.22;1.17;;;;;;;;;;4974984;28;20251;-62
2024/03/29 05:38:38;;;;;;;4.50;1.20;;;;;;;;;;4986281;28;20160;-63
2024/03/29 05:41:03;;;;;;;2.92;0.82;;;;;;;;;;4977225;28;20109;-61
2024/03/29 05:43:28;;;;;;;2.90;0.90;;;;;;;;;;4974118;28;20033;-63
2024/03/29 05:45:53;;;;;;;3.40;0.90;;;;;;;;;;4981696;28;20022;-63
2024/03/29 05:48:19;;;;;;;5.20;1.13;;;;;;;;;;4975601;28;20037;-63
2024/03/29 05:50:44;;;;;;;4.83;1.00;;;;;;;;;;4978243;28;20029;-63
2024/03/29 05:53:09;;;;;;;4.18;1.00;;;;;;;;;;4987875;28;21144;-62
2024/03/29 05:55:35;;;;;;;4.50;1.00;;;;;;;;;;4999800;28;20470;-62
2024/03/29 05:58:00;;;;;;;3.70;1.00;;;;;;;;;;4977929;28;20023;-63
2024/03/29 06:00:26;;;;;;;3.33;1.00;;;;;;;;;;4988812;28;20038;-62
2024/03/29 06:02:52;;;;;;;3.47;1.08;;;;;;;;;;4981751;28;20029;-63
2024/03/29 06:05:17;;;;;;;3.87;1.00;;;;;;;;;;4968325;28;20113;-62
2024/03/29 06:07:42;;;;;;;5.00;1.00;;;;;;;;;;4974084;28;20486;-62
2024/03/29 06:10:09;;;;;;;4.55;1.00;;;;;;;;;;4973773;28;20081;-63
2024/03/29 06:12:38;;;;;;;3.45;1.05;;;;;;;;;;4995863;28;20061;-62
2024/03/29 06:17:47;;;;;;;;;;;;;;;;;;4970323;28;20056;-64
2024/03/29 06:20:12;;;;;;;5.10;1.00;;;;;;;;;;4969649;28;19922;-62
2024/03/29 06:22:37;;;;;;;3.65;1.00;;;;;;;;;;4972061;28;20034;-62
2024/03/29 06:25:04;;;;;;;3.40;1.00;;;;;;;;;;4975698;28;20027;-63
2024/03/29 06:27:30;;;;;;;5.13;1.10;;;;;;;;;;4969069;28;20469;-62
2024/03/29 06:29:55;;;;;;;3.45;1.10;;;;;;;;;;4989287;28;20146;-62
2024/03/29 06:32:20;;;;;;;4.00;0.97;;;;;;;;;;4991175;28;20402;-62
2024/03/29 06:34:46;;;;;;;4.60;0.87;;;;;;;;;;4970893;28;20105;-62
2024/03/29 06:37:11;;;;;;;2.83;0.90;;;;;;;;;;4970842;28;20368;-63
2024/03/29 06:39:36;;;;;;;3.13;0.88;;;;;;;;;;4970939;28;20031;-62
2024/03/29 06:42:02;;;;;;;2.73;0.83;;;;;;;;;;4966599;28;20030;-62
2024/03/29 06:44:27;;;;;;;3.87;0.80;;;;;;;;;;4961658;28;20026;-62
2024/03/29 06:46:52;;;;;;;3.42;0.93;;;;;;;;;;4964199;28;20470;-62
2024/03/29 06:49:17;;;;;;;3.25;0.80;;;;;;;;;;4963809;28;20092;-62
2024/03/29 06:51:42;;;;;;;2.58;0.80;;;;;;;;;;4966449;28;20031;-62
2024/03/29 06:54:08;;;;;;;2.88;0.80;;;;;;;;;;4965786;28;20513;-62
2024/03/29 06:56:33;;;;;;;4.72;0.80;;;;;;;;;;4967431;28;20534;-63
2024/03/29 06:58:58;;;;;;;4.77;1.00;;;;;;;;;;4964599;28;20113;-61
2024/03/29 07:01:23;;;;;;;2.78;0.77;;;;;;;;;;4967067;28;20054;-62
2024/03/29 07:03:48;;;;;;;3.63;0.80;;;;;;;;;;4964714;28;20782;-62
2024/03/29 07:06:14;;;;;;;2.58;0.75;;;;;;;;;;4970961;28;20023;-63
2024/03/29 07:08:39;;;;;;;2.90;0.80;;;;;;;;;;4991081;28;20061;-64
2024/03/29 07:11:04;;;;;;;2.53;0.80;;;;;;;;;;4965917;28;20027;-63
2024/03/29 07:13:32;;;;;;;3.83;0.80;;;;;;;;;;4966401;28;20058;-62
2024/03/29 07:16:00;;;;;;;3.78;1.00;;;;;;;;;;4963625;28;20035;-62
2024/03/29 07:18:26;;;;;;;2.63;0.70;;;;;;;;;;4968289;28;20610;-63
2024/03/29 07:20:51;;;;;;;4.45;0.98;;;;;;;;;;4970716;28;20130;-62
2024/03/29 07:23:18;;;;;;;4.13;0.85;;;;;;;;;;4967847;28;20478;-64
2024/03/29 07:25:44;;;;;;;2.83;0.73;;;;;;;;;;4967160;28;20037;-63
2024/03/29 07:28:10;;;;;;;2.80;0.82;;;;;;;;;;4960266;28;20487;-63
2024/03/29 07:30:37;;;;;;;2.63;0.70;;;;;;;;;;4977567;28;20062;-62
2024/03/29 07:33:02;;;;;;;3.53;0.65;;;;;;;;;;4970596;28;20018;-62
2024/03/29 07:35:28;;;;;;;3.13;0.80;;;;;;;;;;4973415;28;20038;-64
2024/03/29 07:37:53;;;;;;;4.55;1.13;;;;;;;;;;4971598;28;20036;-63
2024/03/29 07:40:18;;;;;;;3.38;0.80;;;;;;;;;;4961364;28;20031;-63
2024/03/29 07:42:44;;;;;;;4.05;0.80;;;;;;;;;;4951117;28;20026;-64
2024/03/29 07:45:09;;;;;;;3.15;0.80;;;;;;;;;;4993866;28;20051;-66
2024/03/29 07:47:34;;;;;;;9.50;0.90;;;;;;;;;;4964576;28;20088;-62
2024/03/29 07:49:59;;;;;;;3.15;0.70;;;;;;;;;;4964587;28;20089;-62
2024/03/29 07:52:25;;;;;;;4.10;0.77;;;;;;;;;;4995164;28;20025;-62
2024/03/29 07:54:50;;;;;;;3.45;0.70;;;;;;;;;;4969231;28;20106;-62
2024/03/29 07:57:17;;;;;;;2.40;0.73;;;;;;;;;;4967834;28;20027;-64
2024/03/29 07:59:42;;;;;;;1.83;0.50;;;;;;;;;;4970167;28;20026;-64
2024/03/29 08:02:07;;;;;;;3.60;0.80;;;;;;;;;;4969896;28;20031;-62
2024/03/29 08:04:32;;;;;;;2.57;0.60;;;;;;;;;;4974158;28;20038;-63
2024/03/29 08:06:57;;;;;;;3.07;0.80;;;;;;;;;;4969804;28;20163;-64
2024/03/29 08:09:22;;;;;;;2.50;0.70;;;;;;;;;;4972770;28;20110;-63
2024/03/29 08:11:47;;;;;;;3.80;0.75;;;;;;;;;;4989786;28;20210;-63
2024/03/29 08:14:13;;;;;;;3.22;0.70;;;;;;;;;;4967451;28;20045;-64
2024/03/29 08:16:38;;;;;;;3.05;0.80;;;;;;;;;;4967830;28;20042;-63
2024/03/29 08:19:03;;;;;;;3.90;0.60;;;;;;;;;;4962461;28;20062;-63
2024/03/29 08:21:28;;;;;;;3.63;0.80;;;;;;;;;;4963644;28;20490;-62
2024/03/29 08:23:54;;;;;;;5.00;0.88;;;;;;;;;;4968606;28;20530;-64
2024/03/29 08:26:20;;;;;;;3.33;0.70;;;;;;;;;;4969951;28;20033;-63
2024/03/29 08:28:46;;;;;;;3.58;0.70;;;;;;;;;;4974141;28;20022;-61
2024/03/29 08:31:11;;;;;;;3.00;0.60;;;;;;;;;;4975010;28;20029;-63
2024/03/29 08:33:39;;;;;;;3.07;0.70;;;;;;;;;;4982546;28;20038;-63
2024/03/29 08:36:08;;;;;;;3.50;0.90;;;;;;;;;;4969895;28;20438;-63
2024/03/29 08:38:33;;;;;;;1.83;0.60;;;;;;;;;;4962934;28;20165;-64
2024/03/29 08:40:58;;;;;;;2.70;0.80;;;;;;;;;;4971697;28;20058;-63
2024/03/29 08:43:24;;;;;;;4.63;0.90;;;;;;;;;;4973714;28;20027;-61
2024/03/29 08:45:49;;;;;;;3.20;1.10;;;;;;;;;;4960366;28;20019;-63
2024/03/29 08:48:14;;;;;;;4.77;1.00;;;;;;;;;;4972181;28;20110;-62
2024/03/29 08:50:39;;;;;;;3.93;1.37;;;;;;;;;;4975566;28;20031;-63
2024/03/29 08:53:04;;;;;;;3.20;0.83;;;;;;;;;;4964188;28;20034;-63
2024/03/29 08:55:30;;;;;;;2.77;0.80;;;;;;;;;;4973785;28;20015;-62
2024/03/29 08:57:58;;;;;;;3.08;0.75;;;;;;;;;;4973282;28;20046;-64
2024/03/29 09:00:23;;;;;;;2.78;0.70;;;;;;;;;;4972389;28;20034;-62
2024/03/29 09:02:48;;;;;;;6.75;0.80;;;;;;;;;;4973005;28;20019;-64
2024/03/29 09:05:13;;;;;;;2.00;0.50;;;;;;;;;;4973147;28;20503;-62
2024/03/29 09:07:40;;;;;;;1.70;0.50;;;;;;;;;;4987151;28;20395;-63
2024/03/29 09:10:06;;;;;;;1.27;0.30;;;;;;;;;;4977222;28;20026;-63
2024/03/29 09:12:31;;;;;;;2.15;0.45;;;;;;;;;;4977082;28;20051;-63
2024/03/29 09:14:56;;;;;;;2.10;0.70;;;;;;;;;;4973552;28;20487;-64
2024/03/29 09:17:21;;;;;;;2.40;0.60;;;;;;;;;;4974654;28;20161;-63
2024/03/29 09:19:49;;;;;;;2.42;0.55;;;;;;;;;;4966151;28;20030;-62
2024/03/29 09:22:14;;;;;;;3.00;0.60;;;;;;;;;;4971520;28;20026;-64
2024/03/29 09:24:39;;;;;;;2.83;0.50;;;;;;;;;;4968193;28;20114;-66
2024/03/29 09:27:04;;;;;;;3.33;0.67;;;;;;;;;;4975601;28;20019;-63
2024/03/29 09:29:30;;;;;;;3.00;0.50;;;;;;;;;;4974460;28;20051;-63
2024/03/29 09:31:55;;;;;;;2.50;0.60;;;;;;;;;;4971818;28;20031;-64
2024/03/29 09:34:20;;;;;;;3.67;0.80;;;;;;;;;;4970145;28;20027;-63
2024/03/29 09:36:45;;;;;;;4.33;0.60;;;;;;;;;;4974205;28;20018;-64
2024/03/29 09:39:11;;;;;;;4.00;0.70;;;;;;;;;;4974389;28;20449;-63
2024/03/29 09:41:37;;;;;;;1.73;0.50;;;;;;;;;;4971206;28;20038;-64
2024/03/29 09:44:03;;;;;;;3.97;0.60;;;;;;;;;;4972103;28;20466;-63
2024/03/29 09:46:29;;;;;;;3.00;0.60;;;;;;;;;;4992806;28;20054;-63
2024/03/29 09:48:54;;;;;;;3.10;0.70;;;;;;;;;;4986801;28;20027;-65
2024/03/29 09:51:21;;;;;;;2.28;0.70;;;;;;;;;;4980127;28;20099;-64
2024/03/29 09:53:46;;;;;;;3.53;0.82;;;;;;;;;;4977043;28;20351;-63
2024/03/29 09:56:11;;;;;;;2.67;0.77;;;;;;;;;;4971014;28;20011;-63
2024/03/29 09:58:37;;;;;;;2.75;0.75;;;;;;;;;;4971529;28;20081;-64
2024/03/29 10:01:03;;;;;;;3.40;0.73;;;;;;;;;;4972131;28;20422;-63
2024/03/29 10:03:34;;;;;;;3.00;0.75;;;;;;;;;;4971650;28;20467;-64
2024/03/29 10:06:00;;;;;;;3.00;0.60;;;;;;;;;;4971174;28;20035;-64
2024/03/29 10:08:30;;;;;;;2.77;0.70;;;;;;;;;;4967074;28;20105;-63
2024/03/29 10:10:55;;;;;;;2.85;0.65;;;;;;;;;;4971331;28;20015;-63
2024/03/29 10:13:20;;;;;;;4.63;0.80;;;;;;;;;;4966260;28;20102;-64
2024/03/29 10:15:49;;;;;;;3.97;0.85;;;;;;;;;;4969800;28;20521;-64
2024/03/29 10:18:14;;;;;;;5.55;0.90;;;;;;;;;;4971475;28;20426;-63
2024/03/29 10:20:39;;;;;;;3.60;0.80;;;;;;;;;;4971553;28;20029;-65
2024/03/29 10:23:05;;;;;;;4.18;0.70;;;;;;;;;;4972043;28;20469;-63
2024/03/29 10:25:34;;;;;;;3.35;0.68;;;;;;;;;;4972311;28;20022;-63
2024/03/29 10:28:01;;;;;;;4.60;0.80;;;;;;;;;;4971595;28;20023;-63
2024/03/29 10:30:27;;;;;;;3.67;0.80;;;;;;;;;;4971248;28;20152;-63
2024/03/29 10:32:53;;;;;;;3.60;0.70;;;;;;;;;;4971294;28;20062;-61
2024/03/29 10:35:19;;;;;;;5.45;0.90;;;;;;;;;;4972885;28;20026;-63
2024/03/29 10:37:45;;;;;;;2.55;0.75;;;;;;;;;;4971010;28;20027;-64
2024/03/29 10:40:10;;;;;;;2.70;0.77;;;;;;;;;;4971701;28;20096;-66
2024/03/29 10:42:39;;;;;;;3.28;0.80;;;;;;;;;;4971945;28;20033;-64
2024/03/29 10:45:07;;;;;;;3.65;0.68;;;;;;;;;;4972011;28;20372;-63
2024/03/29 10:47:33;;;;;;;3.70;0.70;;;;;;;;;;4982654;28;20026;-64
2024/03/29 10:49:58;;;;;;;3.13;0.70;;;;;;;;;;4996228;28;20015;-64
2024/03/29 10:52:26;;;;;;;3.85;0.88;;;;;;;;;;4971962;28;20027;-63
2024/03/29 10:54:54;;;;;;;2.85;0.82;;;;;;;;;;4976545;28;20030;-63
2024/03/29 10:57:22;;;;;;;2.70;0.80;;;;;;;;;;4970227;28;20059;-63
2024/03/29 11:00:06;;;;;;;3.47;0.80;;;;;;;;;;4969823;28;20045;-64
2024/03/29 11:02:55;;;;;;;3.55;0.90;;;;;;;;;;4977315;28;20023;-63
2024/03/29 11:05:21;;;;;;;2.75;0.90;;;;;;;;;;4971366;28;20025;-63
2024/03/29 11:07:47;;;;;;;3.05;0.85;;;;;;;;;;4975752;28;20022;-64
2024/03/29 11:10:20;;;;;;;2.85;0.90;;;;;;;;;;4979023;28;20030;-64
2024/03/29 11:12:50;;;;;;;3.63;0.88;;;;;;;;;;4969940;28;21836;-63
2024/03/29 11:15:19;;;;;;;3.60;0.95;;;;;;;;;;4971261;28;20023;-64
2024/03/29 11:17:44;;;;;;;3.35;0.90;;;;;;;;;;4970456;28;20049;-63
2024/03/29 11:20:10;;;;;;;4.00;0.70;;;;;;;;;;4971717;28;20023;-63
2024/03/29 11:22:35;;;;;;;3.35;0.88;;;;;;;;;;4986044;28;20153;-63
2024/03/29 11:25:01;;;;;;;4.07;0.80;;;;;;;;;;4983964;28;20492;-63
2024/03/29 11:27:26;;;;;;;2.97;0.80;;;;;;;;;;5012030;28;20020;-64
2024/03/29 11:29:52;;;;;;;2.13;0.70;;;;;;;;;;4976694;28;20031;-63
2024/03/29 11:32:33;;;;;;;3.05;0.75;;;;;;;;;;4983058;28;20147;-63
2024/03/29 11:34:59;;;;;;;3.13;0.80;;;;;;;;;;4983483;28;20491;-65
2024/03/29 11:37:29;;;;;;;5.22;1.13;;;;;;;;;;4977287;28;20054;-65
2024/03/29 11:39:54;;;;;;;5.82;0.70;;;;;;;;;;4970231;28;20019;-64
2024/03/29 11:42:34;;;;;;;2.87;0.87;;;;;;;;;;4967558;28;20018;-64
2024/03/29 11:45:00;;;;;;;3.70;0.75;;;;;;;;;;4990000;28;20020;-63
2024/03/29 11:47:27;;;;;;;5.23;0.90;;;;;;;;;;4989565;28;20038;-64
2024/03/29 11:49:56;;;;;;;2.80;0.55;;;;;;;;;;4988515;28;20027;-63
2024/03/29 11:52:21;;;;;;;4.10;0.90;;;;;;;;;;4981489;28;20559;-64
2024/03/29 11:54:46;;;;;;;2.97;0.80;;;;;;;;;;4969210;28;20031;-64
2024/03/29 11:57:11;;;;;;;3.70;1.13;;;;;;;;;;5005416;28;20437;-65
2024/03/29 11:59:36;;;;;;;3.92;0.90;;;;;;;;;;4970101;28;20025;-63
2024/03/29 12:02:03;;;;;;;3.35;0.77;;;;;;;;;;4967935;28;20074;-63
2024/03/29 12:04:28;;;;;;;3.53;0.77;;;;;;;;;;4971871;28;20018;-64
2024/03/29 12:06:53;;;;;;;3.63;0.90;;;;;;;;;;4990024;28;20386;-63
2024/03/29 12:09:18;;;;;;;2.72;0.90;;;;;;;;;;4967843;28;21001;-64
2024/03/29 12:11:45;;;;;;;3.70;0.60;;;;;;;;;;4965328;28;20097;-64
2024/03/29 12:14:13;;;;;;;2.88;0.80;;;;;;;;;;4975691;28;20085;-63
2024/03/29 12:16:45;;;;;;;3.72;0.88;;;;;;;;;;4980947;28;20027;-65
2024/03/29 12:19:10;;;;;;;4.03;0.80;;;;;;;;;;4974921;28;20478;-65
2024/03/29 12:21:35;;;;;;;7.65;0.90;;;;;;;;;;4974672;28;20083;-64
2024/03/29 12:24:01;;;;;;;5.05;0.90;;;;;;;;;;4961244;28;20410;-63
2024/03/29 12:26:30;;;;;;;4.35;1.00;;;;;;;;;;4968898;28;20051;-64
2024/03/29 12:28:55;;;;;;;4.95;0.90;;;;;;;;;;4973725;28;20079;-63
2024/03/29 12:31:21;;;;;;;4.68;0.80;;;;;;;;;;5008267;28;20028;-64
2024/03/29 12:33:46;;;;;;;;;;;;;;;;;;4972919;28;20030;-63
2024/03/29 12:36:12;;;;;;;4.20;0.90;;;;;;;;;;4976422;28;19973;-65
2024/03/29 12:38:37;;;;;;;3.73;0.97;;;;;;;;;;4993409;28;20034;-63
2024/03/29 12:41:02;;;;;;;4.05;1.00;;;;;;;;;;4981152;28;20406;-65
2024/03/29 12:43:28;;;;;;;2.67;0.90;;;;;;;;;;4988908;28;20140;-64
2024/03/29 12:45:53;;;;;;;3.03;0.80;;;;;;;;;;5006619;28;20094;-64
2024/03/29 12:48:24;;;;;;;2.20;0.73;;;;;;;;;;4969711;28;20038;-64
2024/03/29 12:50:50;;;;;;;3.50;1.10;;;;;;;;;;4977337;28;20067;-64
2024/03/29 12:53:15;;;;;;;3.22;0.90;;;;;;;;;;4974591;28;20031;-65
2024/03/29 12:55:45;;;;;;;4.32;0.93;;;;;;;;;;4972306;28;20065;-63
2024/03/29 12:58:11;;;;;;;3.55;0.95;;;;;;;;;;4978674;28;20013;-63
2024/03/29 13:00:36;;;;;;;3.42;0.88;;;;;;;;;;4980053;28;20034;-63
2024/03/29 13:03:02;;;;;;;4.45;0.80;;;;;;;;;;4974599;28;20022;-64
2024/03/29 13:05:29;;;;;;;4.03;0.93;;;;;;;;;;4970800;28;20041;-63
2024/03/29 13:07:54;;;;;;;3.90;0.90;;;;;;;;;;4960377;28;20486;-64
2024/03/29 13:10:20;;;;;;;3.67;1.10;;;;;;;;;;4963145;28;20088;-64
2024/03/29 13:12:46;;;;;;;2.38;0.70;;;;;;;;;;4967297;28;20455;-64
2024/03/29 13:15:19;;;;;;;2.58;0.73;;;;;;;;;;4996748;28;20108;-64
2024/03/29 13:17:45;;;;;;;4.28;0.90;;;;;;;;;;4968913;28;20019;-62
2024/03/29 13:20:11;;;;;;;2.70;0.68;;;;;;;;;;4968797;28;20026;-64
2024/03/29 13:22:36;;;;;;;1.98;0.60;;;;;;;;;;4971555;28;20026;-64
2024/03/29 13:25:02;;;;;;;2.97;0.67;;;;;;;;;;4978855;28;20087;-63
2024/03/29 13:27:27;;;;;;;3.80;1.00;;;;;;;;;;4988127;28;20462;-63
2024/03/29 13:29:52;;;;;;;2.70;0.80;;;;;;;;;;4981167;28;20496;-63
2024/03/29 13:32:18;;;;;;;2.80;0.70;;;;;;;;;;4979098;28;20088;-63
2024/03/29 13:34:43;;;;;;;3.83;0.80;;;;;;;;;;4983485;28;20537;-65
2024/03/29 13:37:08;;;;;;;2.23;0.70;;;;;;;;;;4978762;28;20022;-63
2024/03/29 13:39:33;;;;;;;2.83;0.77;;;;;;;;;;4971031;28;20092;-64
2024/03/29 13:41:58;;;;;;;1.98;0.60;;;;;;;;;;4975660;28;20066;-63
2024/03/29 13:44:24;;;;;;;3.47;0.60;;;;;;;;;;4986989;28;20046;-64
2024/03/29 13:46:49;;;;;;;2.87;0.70;;;;;;;;;;4979086;28;20079;-64
2024/03/29 13:49:14;;;;;;;2.88;0.70;;;;;;;;;;4971695;28;20027;-62
2024/03/29 13:51:39;;;;;;;1.98;0.55;;;;;;;;;;4971674;28;20076;-64
2024/03/29 13:54:05;;;;;;;2.17;0.45;;;;;;;;;;4971515;28;20031;-65
2024/03/29 13:56:30;;;;;;;1.70;0.50;;;;;;;;;;4971709;28;20406;-63
2024/03/29 13:58:55;;;;;;;2.22;0.50;;;;;;;;;;4986216;28;20026;-63
2024/03/29 14:01:20;;;;;;;1.85;0.55;;;;;;;;;;4976452;28;20499;-64
2024/03/29 14:03:46;;;;;;;1.13;0.40;;;;;;;;;;4973966;28;20027;-63
2024/03/29 14:06:11;;;;;;;2.00;0.50;;;;;;;;;;4971715;28;20030;-64
2024/03/29 14:08:36;;;;;;;2.73;0.60;;;;;;;;;;4963409;28;20096;-64
2024/03/29 14:11:01;;;;;;;2.17;0.70;;;;;;;;;;4958511;28;20027;-63
2024/03/29 14:13:27;;;;;;;2.33;0.70;;;;;;;;;;4970115;28;20027;-64
2024/03/29 14:15:52;;;;;;;2.13;0.67;;;;;;;;;;4971500;28;20038;-63
2024/03/29 14:18:17;;;;;;;3.53;0.73;;;;;;;;;;4971530;28;20053;-64
2024/03/29 14:20:42;;;;;;;4.15;1.10;;;;;;;;;;4971618;28;20030;-65
2024/03/29 14:23:10;;;;;;;3.37;0.90;;;;;;;;;;4970809;28;20035;-64
2024/03/29 14:25:35;;;;;;;3.72;1.20;;;;;;;;;;4974061;28;20471;-63
2024/03/29 14:28:02;;;;;;;4.13;1.30;;;;;;;;;;4966050;28;20019;-63
2024/03/29 14:30:27;;;;;;;3.42;1.10;;;;;;;;;;4975689;28;20103;-63
2024/03/29 14:32:53;;;;;;;3.65;1.27;;;;;;;;;;4974569;28;20483;-63
2024/03/29 14:35:19;;;;;;;2.85;0.90;;;;;;;;;;4971693;28;20027;-63
2024/03/29 14:37:44;;;;;;;3.28;0.95;;;;;;;;;;4975215;28;20034;-63
2024/03/29 14:40:12;;;;;;;3.17;0.95;;;;;;;;;;4977592;28;20019;-63
2024/03/29 14:42:37;;;;;;;3.60;1.02;;;;;;;;;;4979781;28;20022;-64